sensor_id;sensor_type;location;lat;lon;timestamp;temperature;humidity
17715;DHT22;8977;50.902;4.314;2022-08-18T00:01:08;23.50;99.90
17715;DHT22;8977;50.902;4.314;2022-08-18T00:03:37;23.50;99.90
17715;DHT22;8977;50.902;4.314;2022-08-18T00:06:06;23.50;99.90
17715;DHT22;8977;50.902;4.314;2022-08-18T00:08:33;23.50;99.90
17715;DHT22;8977;50.902;4.314;2022-08-18T00:11:00;23.50;99.90
17715;DHT22;8977;50.902;4.314;2022-08-18T00:13:27;23.50;99.90
17715;DHT22;8977;50.902;4.314;2022-08-18T00:15:54;23.50;99.90
17715;DHT22;8977;50.902;4.314;2022-08-18T00:18:21;23.40;99.90
17715;DHT22;8977;50.902;4.314;2022-08-18T00:20:49;23.40;99.90
17715;DHT22;8977;50.902;4.314;2022-08-18T00:23:16;23.50;99.90
17715;DHT22;8977;50.902;4.314;2022-08-18T00:25:43;23.50;99.90
17715;DHT22;8977;50.902;4.314;2022-08-18T00:28:10;23.50;99.90
17715;DHT22;8977;50.902;4.314;2022-08-18T00:30:38;23.50;99.90
17715;DHT22;8977;50.902;4.314;2022-08-18T00:33:05;23.50;99.90
17715;DHT22;8977;50.902;4.314;2022-08-18T00:35:35;23.50;99.90
17715;DHT22;8977;50.902;4.314;2022-08-18T00:38:05;23.50;99.90
17715;DHT22;8977;50.902;4.314;2022-08-18T00:40:38;23.50;99.90
17715;DHT22;8977;50.902;4.314;2022-08-18T00:43:10;23.50;99.90
17715;DHT22;8977;50.902;4.314;2022-08-18T00:45:39;23.50;99.90
17715;DHT22;8977;50.902;4.314;2022-08-18T00:48:09;23.50;99.90
17715;DHT22;8977;50.902;4.314;2022-08-18T00:50:41;23.40;99.90
17715;DHT22;8977;50.902;4.314;2022-08-18T00:53:14;23.40;99.90
17715;DHT22;8977;50.902;4.314;2022-08-18T00:55:43;23.40;99.90
17715;DHT22;8977;50.902;4.314;2022-08-18T00:58:18;23.50;99.90
17715;DHT22;8977;50.902;4.314;2022-08-18T01:00:48;23.50;99.90
17715;DHT22;8977;50.902;4.314;2022-08-18T01:03:18;23.50;99.90
17715;DHT22;8977;50.902;4.314;2022-08-18T01:05:49;23.40;99.90
17715;DHT22;8977;50.902;4.314;2022-08-18T01:08:21;23.50;99.90
17715;DHT22;8977;50.902;4.314;2022-08-18T01:10:49;23.40;99.90
17715;DHT22;8977;50.902;4.314;2022-08-18T01:13:16;23.40;99.90
17715;DHT22;8977;50.902;4.314;2022-08-18T01:15:43;23.40;99.90
17715;DHT22;8977;50.902;4.314;2022-08-18T01:18:12;23.40;99.90
17715;DHT22;8977;50.902;4.314;2022-08-18T01:21:03;23.40;99.90
17715;DHT22;8977;50.902;4.314;2022-08-18T01:23:51;23.40;99.90
17715;DHT22;8977;50.902;4.314;2022-08-18T01:26:19;23.40;99.90
17715;DHT22;8977;50.902;4.314;2022-08-18T01:28:46;23.40;99.90
17715;DHT22;8977;50.902;4.314;2022-08-18T01:31:29;23.30;99.90
17715;DHT22;8977;50.902;4.314;2022-08-18T01:33:57;23.40;99.90
17715;DHT22;8977;50.902;4.314;2022-08-18T01:36:26;23.40;99.90
17715;DHT22;8977;50.902;4.314;2022-08-18T01:38:55;23.30;99.90
17715;DHT22;8977;50.902;4.314;2022-08-18T01:41:22;23.40;99.90
17715;DHT22;8977;50.902;4.314;2022-08-18T01:43:50;23.40;99.90
17715;DHT22;8977;50.902;4.314;2022-08-18T01:46:18;23.40;99.90
17715;DHT22;8977;50.902;4.314;2022-08-18T01:48:47;23.40;99.90
17715;DHT22;8977;50.902;4.314;2022-08-18T01:51:15;23.40;99.90
17715;DHT22;8977;50.902;4.314;2022-08-18T01:53:42;23.40;99.90
17715;DHT22;8977;50.902;4.314;2022-08-18T01:56:11;23.40;99.90
17715;DHT22;8977;50.902;4.314;2022-08-18T01:58:42;23.40;99.90
17715;DHT22;8977;50.902;4.314;2022-08-18T02:01:11;23.40;99.90
17715;DHT22;8977;50.902;4.314;2022-08-18T02:03:42;23.30;99.90
17715;DHT22;8977;50.902;4.314;2022-08-18T02:06:12;23.30;99.90
17715;DHT22;8977;50.902;4.314;2022-08-18T02:08:43;23.30;99.90
17715;DHT22;8977;50.902;4.314;2022-08-18T02:11:12;23.30;99.90
17715;DHT22;8977;50.902;4.314;2022-08-18T02:13:39;23.30;99.90
17715;DHT22;8977;50.902;4.314;2022-08-18T02:16:07;23.30;99.90
17715;DHT22;8977;50.902;4.314;2022-08-18T02:18:36;23.30;99.90
17715;DHT22;8977;50.902;4.314;2022-08-18T02:21:07;23.30;99.90
17715;DHT22;8977;50.902;4.314;2022-08-18T02:23:35;23.40;99.90
17715;DHT22;8977;50.902;4.314;2022-08-18T02:26:04;23.40;99.90
17715;DHT22;8977;50.902;4.314;2022-08-18T02:28:33;23.40;99.90
17715;DHT22;8977;50.902;4.314;2022-08-18T02:31:03;23.40;99.90
17715;DHT22;8977;50.902;4.314;2022-08-18T02:33:30;23.30;99.90
17715;DHT22;8977;50.902;4.314;2022-08-18T02:35:57;23.30;99.90
17715;DHT22;8977;50.902;4.314;2022-08-18T02:38:24;23.30;99.90
17715;DHT22;8977;50.902;4.314;2022-08-18T02:40:54;23.30;99.90
17715;DHT22;8977;50.902;4.314;2022-08-18T02:43:21;23.30;99.90
17715;DHT22;8977;50.902;4.314;2022-08-18T02:45:49;23.30;99.90
17715;DHT22;8977;50.902;4.314;2022-08-18T02:48:17;23.20;99.90
17715;DHT22;8977;50.902;4.314;2022-08-18T02:50:46;23.30;99.90
17715;DHT22;8977;50.902;4.314;2022-08-18T02:53:13;23.30;99.90
17715;DHT22;8977;50.902;4.314;2022-08-18T02:55:46;23.30;99.90
17715;DHT22;8977;50.902;4.314;2022-08-18T02:58:13;23.20;99.90
17715;DHT22;8977;50.902;4.314;2022-08-18T03:00:40;23.20;99.90
17715;DHT22;8977;50.902;4.314;2022-08-18T03:03:09;23.20;99.90
17715;DHT22;8977;50.902;4.314;2022-08-18T03:05:38;23.30;99.90
17715;DHT22;8977;50.902;4.314;2022-08-18T03:08:05;23.30;99.90
17715;DHT22;8977;50.902;4.314;2022-08-18T03:10:36;23.20;99.90
17715;DHT22;8977;50.902;4.314;2022-08-18T03:13:03;23.30;99.90
17715;DHT22;8977;50.902;4.314;2022-08-18T03:15:31;23.20;99.90
17715;DHT22;8977;50.902;4.314;2022-08-18T03:17:58;23.20;99.90
17715;DHT22;8977;50.902;4.314;2022-08-18T03:20:27;23.10;99.90
17715;DHT22;8977;50.902;4.314;2022-08-18T03:22:55;23.10;99.90
17715;DHT22;8977;50.902;4.314;2022-08-18T03:25:21;23.10;99.90
17715;DHT22;8977;50.902;4.314;2022-08-18T03:27:48;23.00;99.90
17715;DHT22;8977;50.902;4.314;2022-08-18T03:30:15;23.00;99.90
17715;DHT22;8977;50.902;4.314;2022-08-18T03:32:42;23.10;99.90
17715;DHT22;8977;50.902;4.314;2022-08-18T03:35:10;23.10;99.90
17715;DHT22;8977;50.902;4.314;2022-08-18T03:37:40;23.10;99.90
17715;DHT22;8977;50.902;4.314;2022-08-18T03:40:08;23.10;99.90
17715;DHT22;8977;50.902;4.314;2022-08-18T03:42:36;23.10;99.90
17715;DHT22;8977;50.902;4.314;2022-08-18T03:45:04;23.10;99.90
17715;DHT22;8977;50.902;4.314;2022-08-18T03:47:32;23.10;99.90
17715;DHT22;8977;50.902;4.314;2022-08-18T03:49:58;23.10;99.90
17715;DHT22;8977;50.902;4.314;2022-08-18T03:52:25;23.10;99.90
17715;DHT22;8977;50.902;4.314;2022-08-18T03:54:54;23.10;99.90
17715;DHT22;8977;50.902;4.314;2022-08-18T03:57:20;23.00;99.90
17715;DHT22;8977;50.902;4.314;2022-08-18T03:59:47;23.00;99.90
17715;DHT22;8977;50.902;4.314;2022-08-18T04:02:14;23.10;99.90
17715;DHT22;8977;50.902;4.314;2022-08-18T04:04:41;23.00;99.90
17715;DHT22;8977;50.902;4.314;2022-08-18T04:07:10;23.00;99.90
17715;DHT22;8977;50.902;4.314;2022-08-18T04:09:39;22.90;99.90
17715;DHT22;8977;50.902;4.314;2022-08-18T04:12:12;22.90;99.90
17715;DHT22;8977;50.902;4.314;2022-08-18T04:14:41;23.00;99.90
17715;DHT22;8977;50.902;4.314;2022-08-18T04:17:11;23.00;99.90
17715;DHT22;8977;50.902;4.314;2022-08-18T04:19:38;23.00;99.90
17715;DHT22;8977;50.902;4.314;2022-08-18T04:22:05;23.00;99.90
17715;DHT22;8977;50.902;4.314;2022-08-18T04:24:32;23.00;99.90
17715;DHT22;8977;50.902;4.314;2022-08-18T04:27:01;23.00;99.90
17715;DHT22;8977;50.902;4.314;2022-08-18T04:29:31;23.00;99.90
17715;DHT22;8977;50.902;4.314;2022-08-18T04:32:00;23.00;99.90
17715;DHT22;8977;50.902;4.314;2022-08-18T04:34:29;23.00;99.90
17715;DHT22;8977;50.902;4.314;2022-08-18T04:36:57;22.90;99.90
17715;DHT22;8977;50.902;4.314;2022-08-18T04:39:25;22.90;99.90
17715;DHT22;8977;50.902;4.314;2022-08-18T04:41:52;22.90;99.90
17715;DHT22;8977;50.902;4.314;2022-08-18T04:44:19;22.90;99.90
17715;DHT22;8977;50.902;4.314;2022-08-18T04:46:50;22.90;99.90
17715;DHT22;8977;50.902;4.314;2022-08-18T04:49:19;22.90;99.90
17715;DHT22;8977;50.902;4.314;2022-08-18T04:51:48;22.90;99.90
17715;DHT22;8977;50.902;4.314;2022-08-18T04:54:40;22.90;99.90
17715;DHT22;8977;50.902;4.314;2022-08-18T04:57:08;22.90;99.90
17715;DHT22;8977;50.902;4.314;2022-08-18T04:59:35;22.90;99.90
17715;DHT22;8977;50.902;4.314;2022-08-18T05:02:04;22.90;99.90
17715;DHT22;8977;50.902;4.314;2022-08-18T05:04:32;22.80;99.90
17715;DHT22;8977;50.902;4.314;2022-08-18T05:06:59;22.80;99.90
17715;DHT22;8977;50.902;4.314;2022-08-18T05:09:26;22.90;99.90
17715;DHT22;8977;50.902;4.314;2022-08-18T05:11:53;22.90;99.90
17715;DHT22;8977;50.902;4.314;2022-08-18T05:14:20;22.90;99.90
17715;DHT22;8977;50.902;4.314;2022-08-18T05:16:47;22.90;99.90
17715;DHT22;8977;50.902;4.314;2022-08-18T05:19:17;22.90;99.90
17715;DHT22;8977;50.902;4.314;2022-08-18T05:21:47;22.90;99.90
17715;DHT22;8977;50.902;4.314;2022-08-18T05:24:14;22.90;99.90
17715;DHT22;8977;50.902;4.314;2022-08-18T05:26:40;22.90;99.90
17715;DHT22;8977;50.902;4.314;2022-08-18T05:29:09;22.90;99.90
17715;DHT22;8977;50.902;4.314;2022-08-18T05:31:36;22.90;99.90
17715;DHT22;8977;50.902;4.314;2022-08-18T05:34:03;22.90;99.90
17715;DHT22;8977;50.902;4.314;2022-08-18T05:39:26;22.90;99.90
17715;DHT22;8977;50.902;4.314;2022-08-18T05:42:00;22.80;99.90
17715;DHT22;8977;50.902;4.314;2022-08-18T05:44:31;22.80;99.90
17715;DHT22;8977;50.902;4.314;2022-08-18T05:47:05;22.80;99.90
17715;DHT22;8977;50.902;4.314;2022-08-18T05:49:34;22.80;99.90
17715;DHT22;8977;50.902;4.314;2022-08-18T05:52:06;22.80;99.90
17715;DHT22;8977;50.902;4.314;2022-08-18T05:54:39;22.80;99.90
17715;DHT22;8977;50.902;4.314;2022-08-18T05:57:27;22.80;99.90
17715;DHT22;8977;50.902;4.314;2022-08-18T05:59:57;22.80;99.90
17715;DHT22;8977;50.902;4.314;2022-08-18T06:02:30;22.80;99.90
17715;DHT22;8977;50.902;4.314;2022-08-18T06:05:00;22.80;99.90
17715;DHT22;8977;50.902;4.314;2022-08-18T06:07:36;22.70;99.90
17715;DHT22;8977;50.902;4.314;2022-08-18T06:10:07;22.80;99.90
17715;DHT22;8977;50.902;4.314;2022-08-18T06:12:37;22.80;99.90
17715;DHT22;8977;50.902;4.314;2022-08-18T06:15:12;22.80;99.90
17715;DHT22;8977;50.902;4.314;2022-08-18T06:17:51;22.90;99.90
17715;DHT22;8977;50.902;4.314;2022-08-18T06:20:24;22.90;99.90
17715;DHT22;8977;50.902;4.314;2022-08-18T06:23:01;22.90;99.90
17715;DHT22;8977;50.902;4.314;2022-08-18T06:25:54;22.90;99.90
17715;DHT22;8977;50.902;4.314;2022-08-18T06:28:25;23.00;99.90
17715;DHT22;8977;50.902;4.314;2022-08-18T06:30:58;22.90;99.90
17715;DHT22;8977;50.902;4.314;2022-08-18T06:33:38;22.90;99.90
17715;DHT22;8977;50.902;4.314;2022-08-18T06:36:12;22.90;99.90
17715;DHT22;8977;50.902;4.314;2022-08-18T06:38:51;23.00;99.90
17715;DHT22;8977;50.902;4.314;2022-08-18T06:41:25;23.00;99.90
17715;DHT22;8977;50.902;4.314;2022-08-18T06:44:00;23.10;99.90
17715;DHT22;8977;50.902;4.314;2022-08-18T06:46:36;23.20;99.90
17715;DHT22;8977;50.902;4.314;2022-08-18T06:49:08;23.20;99.90
17715;DHT22;8977;50.902;4.314;2022-08-18T06:51:35;23.10;99.90
17715;DHT22;8977;50.902;4.314;2022-08-18T06:54:05;23.10;99.90
17715;DHT22;8977;50.902;4.314;2022-08-18T06:56:45;23.10;99.90
17715;DHT22;8977;50.902;4.314;2022-08-18T06:59:21;23.10;99.90
17715;DHT22;8977;50.902;4.314;2022-08-18T07:01:52;23.20;99.90
17715;DHT22;8977;50.902;4.314;2022-08-18T07:07:16;23.30;99.90
17715;DHT22;8977;50.902;4.314;2022-08-18T07:09:46;23.30;99.90
17715;DHT22;8977;50.902;4.314;2022-08-18T07:12:21;23.30;99.90
17715;DHT22;8977;50.902;4.314;2022-08-18T07:14:50;23.40;99.90
17715;DHT22;8977;50.902;4.314;2022-08-18T07:17:21;23.40;99.90
17715;DHT22;8977;50.902;4.314;2022-08-18T07:20:00;23.40;99.90
17715;DHT22;8977;50.902;4.314;2022-08-18T07:22:28;23.40;99.90
17715;DHT22;8977;50.902;4.314;2022-08-18T07:24:59;23.40;99.90
17715;DHT22;8977;50.902;4.314;2022-08-18T07:27:44;23.40;99.90
17715;DHT22;8977;50.902;4.314;2022-08-18T07:30:25;23.40;99.90
17715;DHT22;8977;50.902;4.314;2022-08-18T07:32:56;23.40;99.90
17715;DHT22;8977;50.902;4.314;2022-08-18T07:35:31;23.40;99.90
17715;DHT22;8977;50.902;4.314;2022-08-18T07:38:03;23.50;99.90
17715;DHT22;8977;50.902;4.314;2022-08-18T07:40:38;23.60;99.90
17715;DHT22;8977;50.902;4.314;2022-08-18T07:43:12;23.50;99.90
17715;DHT22;8977;50.902;4.314;2022-08-18T07:45:44;23.60;99.90
17715;DHT22;8977;50.902;4.314;2022-08-18T07:48:14;23.60;99.90
17715;DHT22;8977;50.902;4.314;2022-08-18T07:50:55;23.60;99.90
17715;DHT22;8977;50.902;4.314;2022-08-18T07:53:31;23.60;99.90
17715;DHT22;8977;50.902;4.314;2022-08-18T07:56:06;23.60;99.90
17715;DHT22;8977;50.902;4.314;2022-08-18T07:58:47;23.60;99.90
17715;DHT22;8977;50.902;4.314;2022-08-18T08:01:21;23.70;99.90
17715;DHT22;8977;50.902;4.314;2022-08-18T08:03:57;23.70;99.90
17715;DHT22;8977;50.902;4.314;2022-08-18T08:06:29;23.70;99.90
17715;DHT22;8977;50.902;4.314;2022-08-18T08:09:02;23.80;99.90
17715;DHT22;8977;50.902;4.314;2022-08-18T08:11:40;23.80;99.90
17715;DHT22;8977;50.902;4.314;2022-08-18T08:14:29;23.90;99.90
17715;DHT22;8977;50.902;4.314;2022-08-18T08:17:05;23.90;99.90
17715;DHT22;8977;50.902;4.314;2022-08-18T08:19:56;23.90;99.90
17715;DHT22;8977;50.902;4.314;2022-08-18T08:22:29;23.90;99.90
17715;DHT22;8977;50.902;4.314;2022-08-18T08:25:04;23.90;99.90
17715;DHT22;8977;50.902;4.314;2022-08-18T08:27:44;23.90;99.90
17715;DHT22;8977;50.902;4.314;2022-08-18T08:30:16;24.00;99.90
17715;DHT22;8977;50.902;4.314;2022-08-18T08:32:54;24.00;99.90
17715;DHT22;8977;50.902;4.314;2022-08-18T08:35:33;24.00;99.90
17715;DHT22;8977;50.902;4.314;2022-08-18T08:38:07;24.10;99.90
17715;DHT22;8977;50.902;4.314;2022-08-18T08:40:43;24.20;99.90
17715;DHT22;8977;50.902;4.314;2022-08-18T08:43:15;24.20;99.90
17715;DHT22;8977;50.902;4.314;2022-08-18T08:45:48;24.30;99.90
17715;DHT22;8977;50.902;4.314;2022-08-18T08:48:22;24.20;99.90
17715;DHT22;8977;50.902;4.314;2022-08-18T08:50:56;24.30;99.90
17715;DHT22;8977;50.902;4.314;2022-08-18T08:53:31;24.20;99.90
17715;DHT22;8977;50.902;4.314;2022-08-18T08:56:02;24.20;99.90
17715;DHT22;8977;50.902;4.314;2022-08-18T08:58:38;24.20;99.90
17715;DHT22;8977;50.902;4.314;2022-08-18T09:01:13;24.30;99.90
17715;DHT22;8977;50.902;4.314;2022-08-18T09:03:45;24.30;99.90
17715;DHT22;8977;50.902;4.314;2022-08-18T09:06:21;24.30;99.90
17715;DHT22;8977;50.902;4.314;2022-08-18T09:09:24;24.30;99.90
17715;DHT22;8977;50.902;4.314;2022-08-18T09:12:16;24.30;99.90
17715;DHT22;8977;50.902;4.314;2022-08-18T09:15:15;24.30;99.90
17715;DHT22;8977;50.902;4.314;2022-08-18T09:20:55;24.40;99.90
17715;DHT22;8977;50.902;4.314;2022-08-18T09:23:29;24.50;99.90
17715;DHT22;8977;50.902;4.314;2022-08-18T09:25:59;24.50;99.90
17715;DHT22;8977;50.902;4.314;2022-08-18T09:28:53;24.60;99.90
17715;DHT22;8977;50.902;4.314;2022-08-18T09:31:24;24.70;99.90
17715;DHT22;8977;50.902;4.314;2022-08-18T09:34:24;24.80;99.90
17715;DHT22;8977;50.902;4.314;2022-08-18T09:37:04;24.90;99.90
17715;DHT22;8977;50.902;4.314;2022-08-18T09:39:39;25.00;99.90
17715;DHT22;8977;50.902;4.314;2022-08-18T09:42:31;25.00;99.90
17715;DHT22;8977;50.902;4.314;2022-08-18T09:45:07;25.10;99.90
17715;DHT22;8977;50.902;4.314;2022-08-18T09:47:59;25.10;99.90
17715;DHT22;8977;50.902;4.314;2022-08-18T09:50:50;25.20;99.90
17715;DHT22;8977;50.902;4.314;2022-08-18T09:54:05;25.20;99.90
17715;DHT22;8977;50.902;4.314;2022-08-18T10:00:18;25.20;99.90
17715;DHT22;8977;50.902;4.314;2022-08-18T10:03:18;25.10;99.90
17715;DHT22;8977;50.902;4.314;2022-08-18T10:06:19;25.10;99.90
17715;DHT22;8977;50.902;4.314;2022-08-18T10:09:14;25.10;99.90
17715;DHT22;8977;50.902;4.314;2022-08-18T10:11:51;25.00;99.90
17715;DHT22;8977;50.902;4.314;2022-08-18T10:14:44;25.10;99.90
17715;DHT22;8977;50.902;4.314;2022-08-18T10:17:27;25.10;99.90
17715;DHT22;8977;50.902;4.314;2022-08-18T10:20:25;25.10;99.90
17715;DHT22;8977;50.902;4.314;2022-08-18T10:22:56;25.10;99.90
17715;DHT22;8977;50.902;4.314;2022-08-18T10:25:32;25.10;99.90
17715;DHT22;8977;50.902;4.314;2022-08-18T10:27:59;25.20;99.90
17715;DHT22;8977;50.902;4.314;2022-08-18T10:31:00;25.10;99.90
17715;DHT22;8977;50.902;4.314;2022-08-18T10:33:58;25.20;99.90
17715;DHT22;8977;50.902;4.314;2022-08-18T10:36:45;25.30;99.90
17715;DHT22;8977;50.902;4.314;2022-08-18T10:39:16;25.30;99.90
17715;DHT22;8977;50.902;4.314;2022-08-18T10:41:57;25.40;99.90
17715;DHT22;8977;50.902;4.314;2022-08-18T10:44:26;25.40;99.90
17715;DHT22;8977;50.902;4.314;2022-08-18T10:46:57;25.50;99.90
17715;DHT22;8977;50.902;4.314;2022-08-18T10:49:27;25.50;99.90
17715;DHT22;8977;50.902;4.314;2022-08-18T10:57:57;25.70;99.90
17715;DHT22;8977;50.902;4.314;2022-08-18T11:00:39;25.80;99.90
17715;DHT22;8977;50.902;4.314;2022-08-18T11:03:16;25.90;99.90
17715;DHT22;8977;50.902;4.314;2022-08-18T11:05:44;25.90;99.90
17715;DHT22;8977;50.902;4.314;2022-08-18T11:08:15;25.90;99.90
17715;DHT22;8977;50.902;4.314;2022-08-18T11:10:46;25.80;99.90
17715;DHT22;8977;50.902;4.314;2022-08-18T11:13:24;25.80;99.90
17715;DHT22;8977;50.902;4.314;2022-08-18T11:16:02;25.80;99.90
17715;DHT22;8977;50.902;4.314;2022-08-18T11:18:34;25.80;99.90
17715;DHT22;8977;50.902;4.314;2022-08-18T11:21:32;25.70;99.90
17715;DHT22;8977;50.902;4.314;2022-08-18T11:24:07;25.80;99.90
17715;DHT22;8977;50.902;4.314;2022-08-18T11:26:36;25.90;99.90
17715;DHT22;8977;50.902;4.314;2022-08-18T11:29:20;25.90;99.90
17715;DHT22;8977;50.902;4.314;2022-08-18T11:31:48;26.00;99.90
17715;DHT22;8977;50.902;4.314;2022-08-18T11:34:18;26.00;99.90
17715;DHT22;8977;50.902;4.314;2022-08-18T11:36:55;26.10;99.90
17715;DHT22;8977;50.902;4.314;2022-08-18T11:39:28;26.10;99.90
17715;DHT22;8977;50.902;4.314;2022-08-18T11:41:55;26.20;99.90
17715;DHT22;8977;50.902;4.314;2022-08-18T11:44:24;26.30;99.60
17715;DHT22;8977;50.902;4.314;2022-08-18T11:47:08;26.30;99.70
17715;DHT22;8977;50.902;4.314;2022-08-18T11:49:36;26.30;99.90
17715;DHT22;8977;50.902;4.314;2022-08-18T11:52:17;26.20;99.90
17715;DHT22;8977;50.902;4.314;2022-08-18T11:54:47;26.20;99.90
17715;DHT22;8977;50.902;4.314;2022-08-18T11:57:38;26.20;99.90
17715;DHT22;8977;50.902;4.314;2022-08-18T12:00:34;26.10;99.90
17715;DHT22;8977;50.902;4.314;2022-08-18T12:03:02;26.20;99.90
17715;DHT22;8977;50.902;4.314;2022-08-18T12:05:40;26.20;99.90
17715;DHT22;8977;50.902;4.314;2022-08-18T12:08:19;26.30;99.90
17715;DHT22;8977;50.902;4.314;2022-08-18T12:11:01;26.30;99.90
17715;DHT22;8977;50.902;4.314;2022-08-18T12:13:28;26.30;99.90
17715;DHT22;8977;50.902;4.314;2022-08-18T12:16:12;26.30;99.90
17715;DHT22;8977;50.902;4.314;2022-08-18T12:18:39;26.40;99.90
17715;DHT22;8977;50.902;4.314;2022-08-18T12:21:07;26.40;99.90
17715;DHT22;8977;50.902;4.314;2022-08-18T12:23:38;26.40;99.90
17715;DHT22;8977;50.902;4.314;2022-08-18T12:26:07;26.50;99.90
17715;DHT22;8977;50.902;4.314;2022-08-18T12:28:35;26.40;99.90
17715;DHT22;8977;50.902;4.314;2022-08-18T12:31:01;26.50;99.90
17715;DHT22;8977;50.902;4.314;2022-08-18T12:33:29;26.50;99.90
17715;DHT22;8977;50.902;4.314;2022-08-18T12:35:56;26.60;99.90
17715;DHT22;8977;50.902;4.314;2022-08-18T12:38:22;26.70;99.90
17715;DHT22;8977;50.902;4.314;2022-08-18T12:40:49;26.80;99.90
17715;DHT22;8977;50.902;4.314;2022-08-18T12:43:19;26.90;99.90
17715;DHT22;8977;50.902;4.314;2022-08-18T12:45:46;27.00;99.90
17715;DHT22;8977;50.902;4.314;2022-08-18T12:48:12;27.20;99.90
17715;DHT22;8977;50.902;4.314;2022-08-18T12:50:40;27.30;99.90
17715;DHT22;8977;50.902;4.314;2022-08-18T12:53:08;27.40;99.90
17715;DHT22;8977;50.902;4.314;2022-08-18T12:55:38;27.40;99.90
17715;DHT22;8977;50.902;4.314;2022-08-18T12:58:05;27.60;99.90
17715;DHT22;8977;50.902;4.314;2022-08-18T13:00:34;27.70;99.90
17715;DHT22;8977;50.902;4.314;2022-08-18T13:03:01;27.80;99.70
17715;DHT22;8977;50.902;4.314;2022-08-18T13:05:28;27.90;99.30
17715;DHT22;8977;50.902;4.314;2022-08-18T13:07:57;27.90;99.10
17715;DHT22;8977;50.902;4.314;2022-08-18T13:10:24;28.00;99.50
17715;DHT22;8977;50.902;4.314;2022-08-18T13:12:51;28.00;99.50
17715;DHT22;8977;50.902;4.314;2022-08-18T13:15:18;28.00;99.30
17715;DHT22;8977;50.902;4.314;2022-08-18T13:17:46;28.00;99.30
17715;DHT22;8977;50.902;4.314;2022-08-18T13:20:16;28.00;99.40
17715;DHT22;8977;50.902;4.314;2022-08-18T13:22:43;28.10;99.40
17715;DHT22;8977;50.902;4.314;2022-08-18T13:25:13;28.10;98.90
17715;DHT22;8977;50.902;4.314;2022-08-18T13:27:40;28.00;98.90
17715;DHT22;8977;50.902;4.314;2022-08-18T13:30:10;28.00;98.80
17715;DHT22;8977;50.902;4.314;2022-08-18T13:32:39;27.90;99.00
17715;DHT22;8977;50.902;4.314;2022-08-18T13:35:09;27.90;98.60
17715;DHT22;8977;50.902;4.314;2022-08-18T13:37:36;28.00;98.30
17715;DHT22;8977;50.902;4.314;2022-08-18T13:40:04;28.10;98.40
17715;DHT22;8977;50.902;4.314;2022-08-18T13:42:34;28.10;98.20
17715;DHT22;8977;50.902;4.314;2022-08-18T13:45:07;28.10;97.90
17715;DHT22;8977;50.902;4.314;2022-08-18T13:47:36;28.10;98.20
17715;DHT22;8977;50.902;4.314;2022-08-18T13:50:04;28.20;98.70
17715;DHT22;8977;50.902;4.314;2022-08-18T13:52:32;28.20;98.50
17715;DHT22;8977;50.902;4.314;2022-08-18T13:54:59;28.30;98.60
17715;DHT22;8977;50.902;4.314;2022-08-18T13:57:27;28.30;98.50
17715;DHT22;8977;50.902;4.314;2022-08-18T13:59:56;28.40;98.30
17715;DHT22;8977;50.902;4.314;2022-08-18T14:02:23;28.40;98.50
17715;DHT22;8977;50.902;4.314;2022-08-18T14:04:50;28.40;97.90
17715;DHT22;8977;50.902;4.314;2022-08-18T14:07:20;28.40;97.80
17715;DHT22;8977;50.902;4.314;2022-08-18T14:09:48;28.40;97.90
17715;DHT22;8977;50.902;4.314;2022-08-18T14:12:19;28.40;98.20
17715;DHT22;8977;50.902;4.314;2022-08-18T14:14:46;28.40;97.80
17715;DHT22;8977;50.902;4.314;2022-08-18T14:17:14;28.30;97.60
17715;DHT22;8977;50.902;4.314;2022-08-18T14:19:41;28.20;97.80
17715;DHT22;8977;50.902;4.314;2022-08-18T14:22:25;28.10;98.10
17715;DHT22;8977;50.902;4.314;2022-08-18T14:25:11;28.10;98.10
17715;DHT22;8977;50.902;4.314;2022-08-18T14:27:56;28.10;98.30
17715;DHT22;8977;50.902;4.314;2022-08-18T14:30:24;28.00;98.10
17715;DHT22;8977;50.902;4.314;2022-08-18T14:32:51;27.90;98.20
17715;DHT22;8977;50.902;4.314;2022-08-18T14:35:19;27.90;98.30
17715;DHT22;8977;50.902;4.314;2022-08-18T14:37:46;27.80;98.10
17715;DHT22;8977;50.902;4.314;2022-08-18T14:40:15;27.90;98.20
17715;DHT22;8977;50.902;4.314;2022-08-18T14:42:45;27.80;98.10
17715;DHT22;8977;50.902;4.314;2022-08-18T14:45:12;27.80;98.00
17715;DHT22;8977;50.902;4.314;2022-08-18T14:47:40;27.80;97.80
17715;DHT22;8977;50.902;4.314;2022-08-18T14:50:08;27.70;98.00
17715;DHT22;8977;50.902;4.314;2022-08-18T14:52:38;27.70;97.90
17715;DHT22;8977;50.902;4.314;2022-08-18T14:55:07;27.70;97.90
17715;DHT22;8977;50.902;4.314;2022-08-18T14:57:37;27.70;97.80
17715;DHT22;8977;50.902;4.314;2022-08-18T15:00:06;27.70;97.80
17715;DHT22;8977;50.902;4.314;2022-08-18T15:02:36;27.70;98.10
17715;DHT22;8977;50.902;4.314;2022-08-18T15:05:05;27.70;98.30
17715;DHT22;8977;50.902;4.314;2022-08-18T15:07:33;27.70;98.00
17715;DHT22;8977;50.902;4.314;2022-08-18T15:10:02;27.80;98.30
17715;DHT22;8977;50.902;4.314;2022-08-18T15:12:29;27.80;98.70
17715;DHT22;8977;50.902;4.314;2022-08-18T15:14:57;27.90;98.30
17715;DHT22;8977;50.902;4.314;2022-08-18T15:17:25;27.90;98.30
17715;DHT22;8977;50.902;4.314;2022-08-18T15:19:52;28.00;98.00
17715;DHT22;8977;50.902;4.314;2022-08-18T15:22:19;28.00;97.70
17715;DHT22;8977;50.902;4.314;2022-08-18T15:25:06;28.00;97.40
17715;DHT22;8977;50.902;4.314;2022-08-18T15:27:51;28.00;97.50
17715;DHT22;8977;50.902;4.314;2022-08-18T15:30:20;28.10;97.50
17715;DHT22;8977;50.902;4.314;2022-08-18T15:32:48;28.00;97.60
17715;DHT22;8977;50.902;4.314;2022-08-18T15:35:16;28.00;97.70
17715;DHT22;8977;50.902;4.314;2022-08-18T15:37:44;28.00;97.10
17715;DHT22;8977;50.902;4.314;2022-08-18T15:40:14;28.10;97.30
17715;DHT22;8977;50.902;4.314;2022-08-18T15:42:44;28.20;97.30
17715;DHT22;8977;50.902;4.314;2022-08-18T15:45:14;28.30;97.30
17715;DHT22;8977;50.902;4.314;2022-08-18T15:47:42;28.40;97.30
17715;DHT22;8977;50.902;4.314;2022-08-18T15:50:10;28.40;97.40
17715;DHT22;8977;50.902;4.314;2022-08-18T15:52:45;28.50;97.20
17715;DHT22;8977;50.902;4.314;2022-08-18T15:55:12;28.60;97.50
17715;DHT22;8977;50.902;4.314;2022-08-18T15:57:39;28.60;97.50
17715;DHT22;8977;50.902;4.314;2022-08-18T16:00:07;28.70;97.20
17715;DHT22;8977;50.902;4.314;2022-08-18T16:02:35;28.70;97.00
17715;DHT22;8977;50.902;4.314;2022-08-18T16:05:05;28.70;97.10
17715;DHT22;8977;50.902;4.314;2022-08-18T16:07:32;28.80;97.20
17715;DHT22;8977;50.902;4.314;2022-08-18T16:10:01;28.80;97.20
17715;DHT22;8977;50.902;4.314;2022-08-18T16:12:28;28.80;97.00
17715;DHT22;8977;50.902;4.314;2022-08-18T16:14:54;28.80;97.00
17715;DHT22;8977;50.902;4.314;2022-08-18T16:17:21;28.80;96.80
17715;DHT22;8977;50.902;4.314;2022-08-18T16:19:48;28.80;96.70
17715;DHT22;8977;50.902;4.314;2022-08-18T16:22:16;28.90;96.70
17715;DHT22;8977;50.902;4.314;2022-08-18T16:24:43;28.90;96.50
17715;DHT22;8977;50.902;4.314;2022-08-18T16:27:10;28.90;96.50
17715;DHT22;8977;50.902;4.314;2022-08-18T16:29:37;29.00;96.10
17715;DHT22;8977;50.902;4.314;2022-08-18T16:32:04;29.00;96.20
17715;DHT22;8977;50.902;4.314;2022-08-18T16:34:31;29.00;95.70